sensor_id;sensor_type;location;lat;lon;timestamp;P1;durP1;ratioP1;P2;durP2;ratioP2
3881;SDS011;1956;53.482;10.238;2023-04-10T00:02:46;41.17;;;22.55;;
3881;SDS011;1956;53.482;10.238;2023-04-10T00:07:47;41.00;;;22.83;;
3881;SDS011;1956;53.482;10.238;2023-04-10T00:12:47;40.67;;;23.15;;
3881;SDS011;1956;53.482;10.238;2023-04-10T00:17:47;40.78;;;21.67;;
3881;SDS011;1956;53.482;10.238;2023-04-10T00:22:51;40.50;;;22.03;;
3881;SDS011;1956;53.482;10.238;2023-04-10T00:27:54;39.33;;;21.55;;
3881;SDS011;1956;53.482;10.238;2023-04-10T00:32:54;37.27;;;21.60;;
3881;SDS011;1956;53.482;10.238;2023-04-10T00:37:54;39.00;;;21.60;;
3881;SDS011;1956;53.482;10.238;2023-04-10T00:42:55;41.23;;;23.50;;
3881;SDS011;1956;53.482;10.238;2023-04-10T00:47:56;38.35;;;23.13;;
3881;SDS011;1956;53.482;10.238;2023-04-10T00:52:57;41.17;;;21.10;;
3881;SDS011;1956;53.482;10.238;2023-04-10T00:57:57;40.37;;;22.10;;
3881;SDS011;1956;53.482;10.238;2023-04-10T01:02:58;45.22;;;23.17;;
3881;SDS011;1956;53.482;10.238;2023-04-10T01:13:24;38.77;;;21.40;;
3881;SDS011;1956;53.482;10.238;2023-04-10T01:18:35;45.57;;;22.93;;
3881;SDS011;1956;53.482;10.238;2023-04-10T01:23:52;44.53;;;22.80;;
3881;SDS011;1956;53.482;10.238;2023-04-10T01:29:00;39.30;;;22.00;;
3881;SDS011;1956;53.482;10.238;2023-04-10T01:34:07;45.30;;;24.07;;
3881;SDS011;1956;53.482;10.238;2023-04-10T01:39:08;43.07;;;22.70;;
3881;SDS011;1956;53.482;10.238;2023-04-10T01:44:09;50.33;;;22.20;;
3881;SDS011;1956;53.482;10.238;2023-04-10T01:49:13;44.80;;;22.30;;
3881;SDS011;1956;53.482;10.238;2023-04-10T01:54:14;42.23;;;22.53;;
3881;SDS011;1956;53.482;10.238;2023-04-10T01:59:15;44.47;;;24.50;;
3881;SDS011;1956;53.482;10.238;2023-04-10T02:04:15;48.07;;;25.13;;
3881;SDS011;1956;53.482;10.238;2023-04-10T02:09:27;48.20;;;25.03;;
3881;SDS011;1956;53.482;10.238;2023-04-10T02:14:31;46.80;;;25.33;;
3881;SDS011;1956;53.482;10.238;2023-04-10T02:19:31;48.83;;;26.20;;
3881;SDS011;1956;53.482;10.238;2023-04-10T02:24:32;48.53;;;26.27;;
3881;SDS011;1956;53.482;10.238;2023-04-10T02:29:32;51.00;;;25.30;;
3881;SDS011;1956;53.482;10.238;2023-04-10T02:34:32;56.63;;;26.42;;
3881;SDS011;1956;53.482;10.238;2023-04-10T02:39:33;52.67;;;25.17;;
3881;SDS011;1956;53.482;10.238;2023-04-10T02:44:34;44.60;;;23.50;;
3881;SDS011;1956;53.482;10.238;2023-04-10T02:49:34;48.33;;;25.67;;
3881;SDS011;1956;53.482;10.238;2023-04-10T02:54:34;42.60;;;24.80;;
3881;SDS011;1956;53.482;10.238;2023-04-10T02:59:35;45.10;;;24.38;;
3881;SDS011;1956;53.482;10.238;2023-04-10T03:04:35;50.10;;;24.87;;
3881;SDS011;1956;53.482;10.238;2023-04-10T03:09:36;51.37;;;24.07;;
3881;SDS011;1956;53.482;10.238;2023-04-10T03:14:36;45.57;;;22.73;;
3881;SDS011;1956;53.482;10.238;2023-04-10T03:19:36;42.73;;;23.70;;
3881;SDS011;1956;53.482;10.238;2023-04-10T03:24:36;42.00;;;24.60;;
3881;SDS011;1956;53.482;10.238;2023-04-10T03:29:37;43.77;;;24.47;;
3881;SDS011;1956;53.482;10.238;2023-04-10T03:34:37;43.23;;;24.00;;
3881;SDS011;1956;53.482;10.238;2023-04-10T03:39:37;39.07;;;22.07;;
3881;SDS011;1956;53.482;10.238;2023-04-10T03:44:38;39.47;;;22.50;;
3881;SDS011;1956;53.482;10.238;2023-04-10T03:49:38;45.53;;;23.98;;
3881;SDS011;1956;53.482;10.238;2023-04-10T03:54:38;42.70;;;21.70;;
3881;SDS011;1956;53.482;10.238;2023-04-10T03:59:38;43.80;;;22.70;;
3881;SDS011;1956;53.482;10.238;2023-04-10T04:04:39;41.57;;;22.47;;
3881;SDS011;1956;53.482;10.238;2023-04-10T04:09:39;46.77;;;23.63;;
3881;SDS011;1956;53.482;10.238;2023-04-10T04:14:42;43.10;;;23.53;;
3881;SDS011;1956;53.482;10.238;2023-04-10T04:19:44;45.00;;;22.87;;
3881;SDS011;1956;53.482;10.238;2023-04-10T04:24:44;50.15;;;24.15;;
3881;SDS011;1956;53.482;10.238;2023-04-10T04:29:44;41.30;;;23.40;;
3881;SDS011;1956;53.482;10.238;2023-04-10T04:34:44;41.90;;;22.70;;
3881;SDS011;1956;53.482;10.238;2023-04-10T04:39:45;39.20;;;21.70;;
3881;SDS011;1956;53.482;10.238;2023-04-10T04:44:45;38.03;;;22.23;;
3881;SDS011;1956;53.482;10.238;2023-04-10T04:49:45;47.75;;;23.55;;
3881;SDS011;1956;53.482;10.238;2023-04-10T04:54:45;39.30;;;21.83;;
3881;SDS011;1956;53.482;10.238;2023-04-10T04:59:46;44.00;;;23.00;;
3881;SDS011;1956;53.482;10.238;2023-04-10T05:04:46;39.70;;;21.83;;
3881;SDS011;1956;53.482;10.238;2023-04-10T05:09:46;42.60;;;22.30;;
3881;SDS011;1956;53.482;10.238;2023-04-10T05:14:46;41.07;;;23.77;;
3881;SDS011;1956;53.482;10.238;2023-04-10T05:19:47;46.85;;;25.42;;
3881;SDS011;1956;53.482;10.238;2023-04-10T05:24:47;47.50;;;23.70;;
3881;SDS011;1956;53.482;10.238;2023-04-10T05:29:47;46.20;;;24.90;;
3881;SDS011;1956;53.482;10.238;2023-04-10T05:34:47;48.00;;;25.47;;
3881;SDS011;1956;53.482;10.238;2023-04-10T05:39:48;43.20;;;23.70;;
3881;SDS011;1956;53.482;10.238;2023-04-10T05:44:48;50.60;;;24.20;;
3881;SDS011;1956;53.482;10.238;2023-04-10T05:49:49;38.23;;;21.40;;
3881;SDS011;1956;53.482;10.238;2023-04-10T05:54:50;49.73;;;25.60;;
3881;SDS011;1956;53.482;10.238;2023-04-10T05:59:51;41.93;;;22.23;;
3881;SDS011;1956;53.482;10.238;2023-04-10T06:04:51;37.97;;;22.10;;
3881;SDS011;1956;53.482;10.238;2023-04-10T06:09:51;45.13;;;25.15;;
3881;SDS011;1956;53.482;10.238;2023-04-10T06:14:51;42.97;;;23.63;;
3881;SDS011;1956;53.482;10.238;2023-04-10T06:19:52;42.33;;;24.40;;
3881;SDS011;1956;53.482;10.238;2023-04-10T06:24:52;35.80;;;21.63;;
3881;SDS011;1956;53.482;10.238;2023-04-10T06:29:52;36.33;;;21.87;;
3881;SDS011;1956;53.482;10.238;2023-04-10T06:34:52;37.63;;;22.83;;
3881;SDS011;1956;53.482;10.238;2023-04-10T06:39:58;36.53;;;21.98;;
3881;SDS011;1956;53.482;10.238;2023-04-10T06:44:59;34.47;;;20.93;;
3881;SDS011;1956;53.482;10.238;2023-04-10T06:49:59;36.57;;;21.00;;
3881;SDS011;1956;53.482;10.238;2023-04-10T06:55:00;37.40;;;21.47;;
3881;SDS011;1956;53.482;10.238;2023-04-10T07:00:00;35.63;;;22.30;;
3881;SDS011;1956;53.482;10.238;2023-04-10T07:05:00;39.50;;;23.43;;
3881;SDS011;1956;53.482;10.238;2023-04-10T07:10:01;39.15;;;24.20;;
3881;SDS011;1956;53.482;10.238;2023-04-10T07:15:01;36.30;;;22.60;;
3881;SDS011;1956;53.482;10.238;2023-04-10T07:20:02;31.10;;;20.70;;
3881;SDS011;1956;53.482;10.238;2023-04-10T07:25:02;38.47;;;21.87;;
3881;SDS011;1956;53.482;10.238;2023-04-10T07:30:02;35.73;;;21.90;;
3881;SDS011;1956;53.482;10.238;2023-04-10T07:35:03;33.67;;;20.73;;
3881;SDS011;1956;53.482;10.238;2023-04-10T07:40:04;33.57;;;21.20;;
3881;SDS011;1956;53.482;10.238;2023-04-10T07:45:05;37.30;;;21.33;;
3881;SDS011;1956;53.482;10.238;2023-04-10T07:50:06;33.20;;;21.27;;
3881;SDS011;1956;53.482;10.238;2023-04-10T07:55:06;34.77;;;22.13;;
3881;SDS011;1956;53.482;10.238;2023-04-10T08:00:07;35.60;;;22.10;;
3881;SDS011;1956;53.482;10.238;2023-04-10T08:05:07;32.40;;;20.90;;
3881;SDS011;1956;53.482;10.238;2023-04-10T08:10:07;31.97;;;21.53;;
3881;SDS011;1956;53.482;10.238;2023-04-10T08:15:08;28.67;;;21.17;;
3881;SDS011;1956;53.482;10.238;2023-04-10T08:25:46;29.70;;;20.20;;
3881;SDS011;1956;53.482;10.238;2023-04-10T08:30:47;30.25;;;20.17;;
3881;SDS011;1956;53.482;10.238;2023-04-10T08:35:47;28.67;;;19.70;;
3881;SDS011;1956;53.482;10.238;2023-04-10T08:40:48;35.13;;;21.90;;
3881;SDS011;1956;53.482;10.238;2023-04-10T08:45:49;23.97;;;18.37;;
3881;SDS011;1956;53.482;10.238;2023-04-10T08:50:50;27.40;;;17.43;;
3881;SDS011;1956;53.482;10.238;2023-04-10T08:55:51;26.97;;;18.67;;
3881;SDS011;1956;53.482;10.238;2023-04-10T09:00:51;22.07;;;16.80;;
3881;SDS011;1956;53.482;10.238;2023-04-10T09:05:52;21.50;;;16.97;;
3881;SDS011;1956;53.482;10.238;2023-04-10T09:10:52;22.97;;;16.43;;
3881;SDS011;1956;53.482;10.238;2023-04-10T09:15:56;20.67;;;15.70;;
3881;SDS011;1956;53.482;10.238;2023-04-10T09:21:05;20.20;;;16.23;;
3881;SDS011;1956;53.482;10.238;2023-04-10T09:26:20;22.80;;;15.30;;
3881;SDS011;1956;53.482;10.238;2023-04-10T09:31:33;29.47;;;20.43;;
3881;SDS011;1956;53.482;10.238;2023-04-10T09:36:34;27.80;;;19.13;;
3881;SDS011;1956;53.482;10.238;2023-04-10T09:41:49;29.30;;;19.87;;
3881;SDS011;1956;53.482;10.238;2023-04-10T09:46:49;20.15;;;16.60;;
3881;SDS011;1956;53.482;10.238;2023-04-10T09:51:50;20.93;;;16.10;;
3881;SDS011;1956;53.482;10.238;2023-04-10T09:56:51;21.77;;;15.20;;
3881;SDS011;1956;53.482;10.238;2023-04-10T10:01:51;19.90;;;14.23;;
3881;SDS011;1956;53.482;10.238;2023-04-10T10:06:51;19.27;;;13.13;;
3881;SDS011;1956;53.482;10.238;2023-04-10T10:11:52;14.47;;;11.00;;
3881;SDS011;1956;53.482;10.238;2023-04-10T10:16:52;14.30;;;11.37;;
3881;SDS011;1956;53.482;10.238;2023-04-10T10:21:55;19.27;;;13.57;;
3881;SDS011;1956;53.482;10.238;2023-04-10T10:26:56;18.63;;;12.20;;
3881;SDS011;1956;53.482;10.238;2023-04-10T10:31:59;14.67;;;11.20;;
3881;SDS011;1956;53.482;10.238;2023-04-10T10:37:01;17.17;;;11.70;;
3881;SDS011;1956;53.482;10.238;2023-04-10T10:42:29;15.90;;;11.60;;
3881;SDS011;1956;53.482;10.238;2023-04-10T10:47:27;14.83;;;10.50;;
3881;SDS011;1956;53.482;10.238;2023-04-10T10:52:36;12.23;;;9.70;;
3881;SDS011;1956;53.482;10.238;2023-04-10T10:57:46;20.93;;;11.07;;
3881;SDS011;1956;53.482;10.238;2023-04-10T11:08:06;10.13;;;8.37;;
3881;SDS011;1956;53.482;10.238;2023-04-10T11:13:16;14.03;;;11.13;;
3881;SDS011;1956;53.482;10.238;2023-04-10T11:18:16;10.07;;;8.70;;
3881;SDS011;1956;53.482;10.238;2023-04-10T11:23:19;9.30;;;8.40;;
3881;SDS011;1956;53.482;10.238;2023-04-10T11:28:35;9.60;;;8.07;;
3881;SDS011;1956;53.482;10.238;2023-04-10T11:33:36;11.97;;;8.20;;
3881;SDS011;1956;53.482;10.238;2023-04-10T11:38:37;10.23;;;8.63;;
3881;SDS011;1956;53.482;10.238;2023-04-10T11:43:37;8.23;;;6.93;;
3881;SDS011;1956;53.482;10.238;2023-04-10T11:48:38;9.30;;;8.30;;
3881;SDS011;1956;53.482;10.238;2023-04-10T11:53:38;9.33;;;8.20;;
3881;SDS011;1956;53.482;10.238;2023-04-10T11:58:39;6.77;;;6.07;;
3881;SDS011;1956;53.482;10.238;2023-04-10T12:03:40;7.50;;;5.90;;
3881;SDS011;1956;53.482;10.238;2023-04-10T12:08:46;9.17;;;7.20;;
3881;SDS011;1956;53.482;10.238;2023-04-10T12:13:53;9.03;;;7.50;;
3881;SDS011;1956;53.482;10.238;2023-04-10T12:18:53;13.00;;;9.53;;
3881;SDS011;1956;53.482;10.238;2023-04-10T12:23:54;12.20;;;8.90;;
3881;SDS011;1956;53.482;10.238;2023-04-10T12:28:55;12.75;;;7.72;;
3881;SDS011;1956;53.482;10.238;2023-04-10T12:33:59;8.07;;;5.80;;
3881;SDS011;1956;53.482;10.238;2023-04-10T12:39:00;6.90;;;5.80;;
3881;SDS011;1956;53.482;10.238;2023-04-10T12:44:11;10.50;;;8.50;;
3881;SDS011;1956;53.482;10.238;2023-04-10T12:49:13;13.60;;;8.87;;
3881;SDS011;1956;53.482;10.238;2023-04-10T12:54:29;10.57;;;6.73;;
3881;SDS011;1956;53.482;10.238;2023-04-10T12:59:30;7.73;;;5.77;;
3881;SDS011;1956;53.482;10.238;2023-04-10T13:04:30;5.00;;;4.50;;
3881;SDS011;1956;53.482;10.238;2023-04-10T13:09:31;7.83;;;4.50;;
3881;SDS011;1956;53.482;10.238;2023-04-10T13:14:31;5.17;;;4.67;;
3881;SDS011;1956;53.482;10.238;2023-04-10T13:19:32;4.67;;;4.27;;
3881;SDS011;1956;53.482;10.238;2023-04-10T13:24:32;8.93;;;6.73;;
3881;SDS011;1956;53.482;10.238;2023-04-10T13:29:32;8.13;;;6.10;;
3881;SDS011;1956;53.482;10.238;2023-04-10T13:34:33;7.70;;;5.53;;
3881;SDS011;1956;53.482;10.238;2023-04-10T13:39:33;8.83;;;6.27;;
3881;SDS011;1956;53.482;10.238;2023-04-10T13:44:33;12.30;;;8.23;;
3881;SDS011;1956;53.482;10.238;2023-04-10T13:49:33;9.57;;;7.20;;
3881;SDS011;1956;53.482;10.238;2023-04-10T13:54:34;8.53;;;7.03;;
3881;SDS011;1956;53.482;10.238;2023-04-10T13:59:34;7.13;;;5.93;;
3881;SDS011;1956;53.482;10.238;2023-04-10T14:04:34;10.97;;;7.00;;
3881;SDS011;1956;53.482;10.238;2023-04-10T14:09:34;6.43;;;5.83;;
3881;SDS011;1956;53.482;10.238;2023-04-10T14:14:35;7.97;;;6.85;;
3881;SDS011;1956;53.482;10.238;2023-04-10T14:19:35;7.50;;;6.70;;
3881;SDS011;1956;53.482;10.238;2023-04-10T14:24:36;8.47;;;7.30;;
3881;SDS011;1956;53.482;10.238;2023-04-10T14:29:36;8.50;;;7.03;;
3881;SDS011;1956;53.482;10.238;2023-04-10T14:34:36;11.63;;;7.30;;
3881;SDS011;1956;53.482;10.238;2023-04-10T14:39:36;8.30;;;7.03;;
3881;SDS011;1956;53.482;10.238;2023-04-10T14:44:37;10.23;;;7.23;;
3881;SDS011;1956;53.482;10.238;2023-04-10T14:49:37;16.83;;;8.70;;
3881;SDS011;1956;53.482;10.238;2023-04-10T14:54:37;9.50;;;7.43;;
3881;SDS011;1956;53.482;10.238;2023-04-10T14:59:38;10.00;;;6.90;;
3881;SDS011;1956;53.482;10.238;2023-04-10T15:04:38;12.00;;;7.10;;
3881;SDS011;1956;53.482;10.238;2023-04-10T15:09:38;8.73;;;7.77;;
3881;SDS011;1956;53.482;10.238;2023-04-10T15:14:39;8.23;;;6.70;;
3881;SDS011;1956;53.482;10.238;2023-04-10T15:19:40;8.27;;;6.63;;
3881;SDS011;1956;53.482;10.238;2023-04-10T15:24:40;7.63;;;5.83;;
3881;SDS011;1956;53.482;10.238;2023-04-10T15:29:41;5.80;;;5.20;;
3881;SDS011;1956;53.482;10.238;2023-04-10T15:34:42;5.73;;;5.23;;
3881;SDS011;1956;53.482;10.238;2023-04-10T15:39:42;7.13;;;5.10;;
3881;SDS011;1956;53.482;10.238;2023-04-10T15:44:45;5.13;;;4.67;;
3881;SDS011;1956;53.482;10.238;2023-04-10T15:49:48;5.43;;;4.93;;
3881;SDS011;1956;53.482;10.238;2023-04-10T15:54:49;6.93;;;5.83;;
3881;SDS011;1956;53.482;10.238;2023-04-10T15:59:50;7.90;;;6.30;;
3881;SDS011;1956;53.482;10.238;2023-04-10T16:04:51;8.57;;;6.63;;
3881;SDS011;1956;53.482;10.238;2023-04-10T16:09:51;8.33;;;6.27;;
3881;SDS011;1956;53.482;10.238;2023-04-10T16:14:53;8.70;;;7.80;;
3881;SDS011;1956;53.482;10.238;2023-04-10T16:19:54;9.63;;;7.80;;
3881;SDS011;1956;53.482;10.238;2023-04-10T16:24:54;6.30;;;5.70;;
3881;SDS011;1956;53.482;10.238;2023-04-10T16:29:55;11.97;;;7.73;;
3881;SDS011;1956;53.482;10.238;2023-04-10T16:34:55;8.43;;;7.30;;
3881;SDS011;1956;53.482;10.238;2023-04-10T16:39:55;10.50;;;7.20;;
3881;SDS011;1956;53.482;10.238;2023-04-10T16:44:56;9.73;;;7.00;;
3881;SDS011;1956;53.482;10.238;2023-04-10T16:49:57;11.93;;;7.37;;
3881;SDS011;1956;53.482;10.238;2023-04-10T16:54:57;7.60;;;6.00;;
3881;SDS011;1956;53.482;10.238;2023-04-10T16:59:58;9.60;;;6.53;;
3881;SDS011;1956;53.482;10.238;2023-04-10T17:04:58;7.27;;;6.20;;
3881;SDS011;1956;53.482;10.238;2023-04-10T17:09:58;8.30;;;5.70;;
3881;SDS011;1956;53.482;10.238;2023-04-10T17:14:59;10.63;;;7.40;;
3881;SDS011;1956;53.482;10.238;2023-04-10T17:19:59;12.87;;;7.63;;
3881;SDS011;1956;53.482;10.238;2023-04-10T17:24:59;7.90;;;6.40;;
3881;SDS011;1956;53.482;10.238;2023-04-10T17:30:00;8.53;;;7.37;;
3881;SDS011;1956;53.482;10.238;2023-04-10T17:35:00;8.73;;;6.73;;
3881;SDS011;1956;53.482;10.238;2023-04-10T17:40:00;18.20;;;7.67;;
3881;SDS011;1956;53.482;10.238;2023-04-10T17:45:00;6.77;;;5.63;;
3881;SDS011;1956;53.482;10.238;2023-04-10T17:50:01;8.52;;;6.75;;
3881;SDS011;1956;53.482;10.238;2023-04-10T17:55:02;8.00;;;6.50;;
3881;SDS011;1956;53.482;10.238;2023-04-10T18:00:05;9.23;;;6.73;;
3881;SDS011;1956;53.482;10.238;2023-04-10T18:05:06;8.93;;;6.67;;
3881;SDS011;1956;53.482;10.238;2023-04-10T18:10:08;6.97;;;6.23;;
3881;SDS011;1956;53.482;10.238;2023-04-10T18:15:08;11.30;;;6.77;;
3881;SDS011;1956;53.482;10.238;2023-04-10T18:20:09;8.17;;;6.50;;
3881;SDS011;1956;53.482;10.238;2023-04-10T18:25:09;9.50;;;7.63;;
3881;SDS011;1956;53.482;10.238;2023-04-10T18:30:10;7.77;;;6.40;;
3881;SDS011;1956;53.482;10.238;2023-04-10T18:35:10;11.40;;;7.20;;
3881;SDS011;1956;53.482;10.238;2023-04-10T18:40:11;11.90;;;7.87;;
3881;SDS011;1956;53.482;10.238;2023-04-10T18:45:11;11.43;;;7.17;;
3881;SDS011;1956;53.482;10.238;2023-04-10T18:50:12;12.90;;;7.73;;
3881;SDS011;1956;53.482;10.238;2023-04-10T18:55:12;9.23;;;7.20;;
3881;SDS011;1956;53.482;10.238;2023-04-10T19:00:12;15.90;;;8.43;;
3881;SDS011;1956;53.482;10.238;2023-04-10T19:05:13;8.70;;;6.97;;
3881;SDS011;1956;53.482;10.238;2023-04-10T19:10:15;12.30;;;7.73;;
3881;SDS011;1956;53.482;10.238;2023-04-10T19:15:15;10.33;;;7.77;;
3881;SDS011;1956;53.482;10.238;2023-04-10T19:20:16;12.60;;;7.77;;
3881;SDS011;1956;53.482;10.238;2023-04-10T19:25:16;10.10;;;7.50;;
3881;SDS011;1956;53.482;10.238;2023-04-10T19:30:16;10.37;;;8.13;;
3881;SDS011;1956;53.482;10.238;2023-04-10T19:35:16;12.10;;;7.80;;
3881;SDS011;1956;53.482;10.238;2023-04-10T19:40:17;8.23;;;7.43;;
3881;SDS011;1956;53.482;10.238;2023-04-10T19:45:18;11.80;;;8.00;;
3881;SDS011;1956;53.482;10.238;2023-04-10T19:50:19;9.57;;;8.10;;
3881;SDS011;1956;53.482;10.238;2023-04-10T19:55:19;13.27;;;10.63;;
3881;SDS011;1956;53.482;10.238;2023-04-10T20:00:19;11.40;;;8.60;;
3881;SDS011;1956;53.482;10.238;2023-04-10T20:05:23;11.57;;;8.60;;
3881;SDS011;1956;53.482;10.238;2023-04-10T20:10:23;9.57;;;8.25;;
3881;SDS011;1956;53.482;10.238;2023-04-10T20:15:23;10.07;;;7.70;;
3881;SDS011;1956;53.482;10.238;2023-04-10T20:20:24;11.45;;;7.80;;
3881;SDS011;1956;53.482;10.238;2023-04-10T20:25:24;13.48;;;8.52;;
3881;SDS011;1956;53.482;10.238;2023-04-10T20:30:24;10.80;;;7.47;;
3881;SDS011;1956;53.482;10.238;2023-04-10T20:35:24;8.87;;;7.13;;
3881;SDS011;1956;53.482;10.238;2023-04-10T20:40:25;9.00;;;8.10;;
3881;SDS011;1956;53.482;10.238;2023-04-10T20:45:25;7.53;;;6.73;;
3881;SDS011;1956;53.482;10.238;2023-04-10T20:50:26;9.90;;;7.20;;
3881;SDS011;1956;53.482;10.238;2023-04-10T20:55:26;10.03;;;7.37;;
3881;SDS011;1956;53.482;10.238;2023-04-10T21:00:26;13.33;;;7.20;;
3881;SDS011;1956;53.482;10.238;2023-04-10T21:05:29;9.03;;;6.70;;
3881;SDS011;1956;53.482;10.238;2023-04-10T21:10:30;11.70;;;6.57;;
3881;SDS011;1956;53.482;10.238;2023-04-10T21:15:30;8.77;;;7.23;;
3881;SDS011;1956;53.482;10.238;2023-04-10T21:20:30;9.23;;;6.83;;
3881;SDS011;1956;53.482;10.238;2023-04-10T21:25:33;13.50;;;6.83;;
3881;SDS011;1956;53.482;10.238;2023-04-10T21:30:34;12.20;;;8.23;;
3881;SDS011;1956;53.482;10.238;2023-04-10T21:35:34;14.82;;;9.43;;
3881;SDS011;1956;53.482;10.238;2023-04-10T21:40:34;13.38;;;8.00;;
3881;SDS011;1956;53.482;10.238;2023-04-10T21:45:35;12.90;;;7.30;;
3881;SDS011;1956;53.482;10.238;2023-04-10T21:50:36;7.80;;;5.90;;
3881;SDS011;1956;53.482;10.238;2023-04-10T21:55:36;8.37;;;6.10;;
3881;SDS011;1956;53.482;10.238;2023-04-10T22:00:38;6.80;;;5.80;;
3881;SDS011;1956;53.482;10.238;2023-04-10T22:05:38;4.87;;;4.33;;
3881;SDS011;1956;53.482;10.238;2023-04-10T22:10:38;5.50;;;4.90;;
3881;SDS011;1956;53.482;10.238;2023-04-10T22:15:39;5.70;;;4.60;;
3881;SDS011;1956;53.482;10.238;2023-04-10T22:20:39;5.27;;;4.77;;
3881;SDS011;1956;53.482;10.238;2023-04-10T22:25:39;4.90;;;4.23;;
3881;SDS011;1956;53.482;10.238;2023-04-10T22:30:40;4.50;;;4.10;;
3881;SDS011;1956;53.482;10.238;2023-04-10T22:35:40;4.77;;;4.20;;
3881;SDS011;1956;53.482;10.238;2023-04-10T22:40:40;4.90;;;4.30;;
3881;SDS011;1956;53.482;10.238;2023-04-10T22:45:40;6.70;;;4.77;;
3881;SDS011;1956;53.482;10.238;2023-04-10T22:50:41;5.40;;;4.85;;
3881;SDS011;1956;53.482;10.238;2023-04-10T22:55:41;5.95;;;5.35;;
3881;SDS011;1956;53.482;10.238;2023-04-10T23:00:41;5.50;;;4.70;;
3881;SDS011;1956;53.482;10.238;2023-04-10T23:05:41;5.30;;;4.80;;
3881;SDS011;1956;53.482;10.238;2023-04-10T23:10:42;5.90;;;4.60;;
3881;SDS011;1956;53.482;10.238;2023-04-10T23:15:46;5.10;;;4.33;;
3881;SDS011;1956;53.482;10.238;2023-04-10T23:20:47;5.40;;;4.47;;
3881;SDS011;1956;53.482;10.238;2023-04-10T23:25:55;6.70;;;4.37;;
3881;SDS011;1956;53.482;10.238;2023-04-10T23:30:55;8.23;;;5.47;;
3881;SDS011;1956;53.482;10.238;2023-04-10T23:35:55;4.97;;;4.47;;
3881;SDS011;1956;53.482;10.238;2023-04-10T23:40:55;9.90;;;4.67;;
3881;SDS011;1956;53.482;10.238;2023-04-10T23:45:56;5.93;;;4.40;;
3881;SDS011;1956;53.482;10.238;2023-04-10T23:51:03;4.60;;;4.20;;
3881;SDS011;1956;53.482;10.238;2023-04-10T23:56:04;4.63;;;4.10;;
